Impacts TAF Board
For situational awareness. Not to be used for flight planning purposes.
IDs:

PABE - Bethel Arpt, AK, US

Issued at 2323 UTC 28 Nov 2020
Updated at 0244 UTC 29 Nov 2020
Potential Impact None Slight Moderate High
Time0153Z 29/03Z 29/04Z 29/05Z 29/06Z 29/07Z 29/08Z 29/09Z 29/10Z 29/11Z 29/12Z 29/13Z 29/14Z 29/15Z>>
Type OBS PRVL
  [TEMP]  
PRVL
  [TEMP]  
PRVL
  [TEMP]  
PRVL PRVL PRVL PRVL PRVL PRVL PRVL PRVL PRVL PRVL
VIS 10 >6
  [4]  
>6
  [4]  
>6
  [4]  
6 6 6 6 >6 >6 >6 >6 >6 >6
CIG 95 80
  [35]  
80
  [35]  
80
  [35]  
25 25 25 25 35 35 35 35 35 35
Cover OVC OVC
  [OVC]  
OVC
  [OVC]  
OVC
  [OVC]  
OVC OVC OVC OVC OVC OVC OVC OVC OVC OVC
FltCat VFR VFR
  [MVFR]  
VFR
  [MVFR]  
VFR
  [MVFR]  
MVFR MVFR MVFR MVFR VFR VFR VFR VFR VFR VFR
WX -- --
  [-SN]  
--
  [-SN]  
--
  [-SN]  
BR BR BR BR -- -- -- -- -- --
WDir 330 330
[330]
330
[330]
330
[330]
320 320 320 320 330 330 330 330 330 330
WSpd 13 15
  [15]  
15
  [15]  
15
  [15]  
11 11 11 11 9 9 9 9 9 9
WGst -- --
  [--]  
--
  [--]  
--
  [--]  
-- -- -- -- -- -- -- -- -- --
Raw TAF
PABE 282323Z 2900/2924 33015KT P6SM OVC080
  TEMPO 2902/2906 4SM -SN OVC035
  FM290600 32011KT 6SM BR SCT015 OVC025
  FM291000 33009KT P6SM OVC035


Raw METAR
PABE 290153Z 33013KT 10SM OVC095 M07/M09 A2906 RMK AO2 SLP841 T10721094
PABE 290053Z 33014KT 10SM OVC090 M07/M09 A2905 RMK AO2 SLP838 T10721094
PABE 282353Z 34015KT 10SM OVC080 M07/M09 A2904 RMK AO2 SLP837 T10721094 11072 21089 53002

METAR Board
Radar Display
Forecast Discussion
For situational awareness. Not to be used for flight planning purposes.